Time;durP1;ratioP1;P1;durP2;ratioP2;P2;SDS_P1;SDS_P2;PMS_P1;PMS_P2;Temp;Humidity;BMP_temperature;BMP_pressure;BME280_temperature;BME280_humidity;BME280_pressure;Samples;Min_cycle;Max_cycle;Signal;HPM_P1;HPM_P2
2023/05/23 00:03:15;;;;;;;45.50;39.30;;;18.60;99.90;;;;;;10515909;28;20233;-70
2023/05/23 00:08:17;;;;;;;45.70;39.63;;;18.50;99.90;;;;;;10513349;28;20269;-70
2023/05/23 00:13:17;;;;;;;48.40;38.13;;;18.40;99.90;;;;;;10504201;28;20688;-71
2023/05/23 00:18:18;;;;;;;47.37;39.70;;;18.30;99.90;;;;;;10499913;28;20225;-74
2023/05/23 00:23:19;;;;;;;47.47;36.63;;;18.20;99.90;;;;;;10525571;28;20663;-73
2023/05/23 00:28:20;;;;;;;46.90;38.60;;;18.10;99.90;;;;;;10495846;28;20734;-73
2023/05/23 00:33:21;;;;;;;41.27;36.77;;;18.00;99.90;;;;;;10507271;28;20231;-73
2023/05/23 00:38:22;;;;;;;46.97;38.93;;;17.90;99.90;;;;;;10513653;28;20234;-72
2023/05/23 00:43:22;;;;;;;42.27;36.57;;;17.80;99.90;;;;;;10495515;28;20325;-73
2023/05/23 00:48:26;;;;;;;49.40;40.00;;;17.70;99.90;;;;;;10505956;28;20681;-71
2023/05/23 00:53:27;;;;;;;44.83;39.03;;;17.70;99.90;;;;;;10518324;28;20271;-74
2023/05/23 00:58:28;;;;;;;39.60;35.27;;;17.70;99.90;;;;;;10521810;28;20569;-70
2023/05/23 01:03:29;;;;;;;49.13;40.23;;;17.60;99.90;;;;;;10520483;28;20225;-74
2023/05/23 01:08:29;;;;;;;44.57;37.40;;;17.60;99.90;;;;;;10501986;28;20218;-72
2023/05/23 01:13:46;;;;;;;45.80;40.13;;;17.50;99.90;;;;;;10502474;28;20228;-72
2023/05/23 01:19:04;;;;;;;48.33;39.83;;;17.40;99.90;;;;;;10519872;28;20226;-73
2023/05/23 01:24:35;;;;;;;41.93;35.50;;;17.40;99.90;;;;;;10494416;28;20729;-72
2023/05/23 01:29:45;;;;;;;46.40;39.20;;;17.30;99.90;;;;;;10497896;28;20218;-71
2023/05/23 01:34:46;;;;;;;42.83;37.10;;;17.30;99.90;;;;;;10521252;28;20252;-72
2023/05/23 01:39:47;;;;;;;39.40;35.20;;;17.20;99.90;;;;;;10500544;28;20297;-72
2023/05/23 01:44:48;;;;;;;40.23;33.17;;;17.20;99.90;;;;;;10511327;28;20325;-72
2023/05/23 01:49:50;;;;;;;39.30;34.63;;;17.10;99.90;;;;;;10501419;28;20727;-72
2023/05/23 01:54:52;;;;;;;39.60;34.57;;;17.10;99.90;;;;;;10519587;28;20697;-74
2023/05/23 01:59:53;;;;;;;37.13;33.13;;;17.10;99.90;;;;;;10518727;28;20308;-73
2023/05/23 02:04:56;;;;;;;38.43;33.97;;;17.10;99.90;;;;;;10519300;28;20653;-73
2023/05/23 02:09:56;;;;;;;38.20;33.27;;;17.00;99.90;;;;;;10522074;28;20206;-73
2023/05/23 02:15:00;;;;;;;33.53;29.90;;;17.00;99.90;;;;;;10510747;28;20360;-72
2023/05/23 02:20:00;;;;;;;35.00;31.27;;;16.90;99.90;;;;;;10510239;28;20233;-72
2023/05/23 02:25:01;;;;;;;36.70;32.70;;;16.80;99.90;;;;;;10500247;28;20229;-71
2023/05/23 02:30:02;;;;;;;35.30;30.07;;;16.70;99.90;;;;;;10506127;28;20864;-72
2023/05/23 02:35:04;;;;;;;34.70;30.37;;;16.70;99.90;;;;;;10509862;28;20238;-72
2023/05/23 02:40:06;;;;;;;33.60;29.97;;;16.70;99.90;;;;;;10514529;28;20677;-72
2023/05/23 02:45:07;;;;;;;36.57;30.87;;;16.60;99.90;;;;;;10508606;28;20228;-74
2023/05/23 02:50:08;;;;;;;29.47;26.47;;;16.70;99.90;;;;;;10508007;28;20197;-72
2023/05/23 02:55:09;;;;;;;27.70;25.00;;;16.80;99.90;;;;;;10510635;28;20594;-72
2023/05/23 03:00:10;;;;;;;25.30;22.90;;;16.90;99.90;;;;;;10513857;28;20186;-72
2023/05/23 03:05:11;;;;;;;24.60;22.10;;;17.10;99.90;;;;;;10516033;28;20221;-72
2023/05/23 03:10:11;;;;;;;25.60;23.00;;;17.20;99.90;;;;;;10519012;28;20732;-72
2023/05/23 03:15:12;;;;;;;22.87;20.67;;;17.20;99.90;;;;;;10495046;28;20225;-70
2023/05/23 03:20:13;;;;;;;25.70;23.30;;;17.10;99.90;;;;;;10519240;28;20210;-71
2023/05/23 03:25:15;;;;;;;24.23;21.90;;;17.10;99.90;;;;;;10520395;28;20509;-71
2023/05/23 03:30:16;;;;;;;24.37;22.00;;;17.10;99.90;;;;;;10515292;28;20186;-71
2023/05/23 03:35:16;;;;;;;21.27;19.07;;;17.20;99.90;;;;;;10510850;28;20209;-71
2023/05/23 03:40:17;;;;;;;21.80;19.20;;;17.20;99.90;;;;;;10515251;28;20185;-70
2023/05/23 03:45:18;;;;;;;17.80;16.07;;;17.10;99.90;;;;;;10509607;28;20237;-72
2023/05/23 03:50:18;;;;;;;19.07;17.27;;;17.20;99.90;;;;;;10509891;28;20202;-69
2023/05/23 03:55:25;;;;;;;17.30;15.47;;;17.20;99.90;;;;;;10510718;28;20215;-70
2023/05/23 04:00:25;;;;;;;19.57;15.50;;;17.20;99.90;;;;;;10510397;28;20213;-70
2023/05/23 04:05:26;;;;;;;14.93;13.43;;;17.20;99.90;;;;;;10497207;28;20230;-71
2023/05/23 04:10:27;;;;;;;17.67;14.27;;;17.20;99.90;;;;;;10506049;28;20874;-72
2023/05/23 04:15:27;;;;;;;17.53;15.60;;;17.10;99.90;;;;;;10491843;28;20213;-72
2023/05/23 04:20:29;;;;;;;19.07;17.00;;;17.00;99.90;;;;;;10515612;28;20688;-70
2023/05/23 04:25:30;;;;;;;21.03;18.83;;;17.00;99.90;;;;;;10489112;28;20229;-72
2023/05/23 04:30:31;;;;;;;21.37;19.30;;;17.00;99.90;;;;;;10511322;28;20295;-70
2023/05/23 04:35:33;;;;;;;19.40;17.47;;;17.00;99.90;;;;;;10488948;28;20227;-73
2023/05/23 04:40:33;;;;;;;19.37;17.23;;;17.10;99.90;;;;;;10510696;28;20223;-72
2023/05/23 04:45:35;;;;;;;19.90;18.00;;;17.30;99.90;;;;;;10505098;28;20225;-72
2023/05/23 04:50:36;;;;;;;19.87;17.87;;;17.60;99.90;;;;;;10496266;28;20218;-74
2023/05/23 04:55:37;;;;;;;18.03;16.23;;;18.00;99.90;;;;;;10491991;28;20267;-72
2023/05/23 05:00:38;;;;;;;15.57;14.07;;;18.90;99.90;;;;;;10519331;28;20214;-73
2023/05/23 05:05:38;;;;;;;17.30;15.60;;;20.00;99.90;;;;;;10510701;28;20225;-72
2023/05/23 05:10:39;;;;;;;15.93;14.50;;;20.40;99.90;;;;;;10520912;28;20214;-73
2023/05/23 05:15:40;;;;;;;15.33;13.87;;;20.20;99.90;;;;;;10501625;28;20279;-66
2023/05/23 05:20:40;;;;;;;14.67;13.17;;;19.70;99.90;;;;;;10521940;28;20222;-65
2023/05/23 05:25:41;;;;;;;14.03;12.63;;;19.10;99.90;;;;;;10511843;28;20215;-67
2023/05/23 05:30:41;;;;;;;15.23;13.80;;;19.00;99.90;;;;;;10518623;28;20218;-66
2023/05/23 05:35:42;;;;;;;16.37;14.57;;;18.90;99.90;;;;;;10516552;28;20936;-66
2023/05/23 05:40:43;;;;;;;15.37;13.77;;;19.00;99.90;;;;;;10518472;28;20748;-73
2023/05/23 05:45:43;;;;;;;15.50;13.90;;;18.70;99.90;;;;;;10518565;28;20223;-73
2023/05/23 05:50:44;;;;;;;16.13;14.63;;;18.50;99.90;;;;;;10511112;28;20223;-72
2023/05/23 05:55:45;;;;;;;15.73;14.23;;;18.30;99.90;;;;;;10517383;28;20228;-72
2023/05/23 06:00:47;;;;;;;15.80;14.27;;;18.20;99.90;;;;;;10524459;28;20587;-72
2023/05/23 06:05:48;;;;;;;14.80;13.47;;;18.40;99.90;;;;;;10508586;28;20269;-72
2023/05/23 06:10:48;;;;;;;13.30;12.03;;;18.60;99.90;;;;;;10499650;28;20623;-72
2023/05/23 06:15:49;;;;;;;15.53;14.00;;;18.70;99.90;;;;;;10499702;28;20206;-73
2023/05/23 06:20:50;;;;;;;13.07;11.77;;;18.70;99.90;;;;;;10510534;28;20207;-72
2023/05/23 06:25:50;;;;;;;13.03;10.67;;;18.50;99.90;;;;;;10508790;28;20225;-72
2023/05/23 06:30:51;;;;;;;9.20;8.37;;;18.40;99.90;;;;;;10490909;28;20282;-71
2023/05/23 06:35:51;;;;;;;8.57;7.87;;;18.50;99.90;;;;;;10516965;28;20249;-72
2023/05/23 06:40:52;;;;;;;9.60;8.43;;;19.00;99.90;;;;;;10516764;28;20222;-72
2023/05/23 06:45:53;;;;;;;7.87;7.17;;;19.20;99.90;;;;;;10497198;28;20227;-72
2023/05/23 06:50:53;;;;;;;8.30;7.50;;;19.50;99.90;;;;;;10507712;28;20694;-73
2023/05/23 06:55:54;;;;;;;7.53;6.53;;;19.30;99.90;;;;;;10497822;28;20729;-71
2023/05/23 07:00:55;;;;;;;6.40;5.90;;;19.10;99.90;;;;;;10514804;28;20858;-72
2023/05/23 07:05:55;;;;;;;6.30;5.70;;;18.80;99.90;;;;;;10507541;28;20235;-73
2023/05/23 07:10:58;;;;;;;6.17;5.57;;;18.50;99.90;;;;;;10492597;28;20211;-72
2023/05/23 07:15:59;;;;;;;6.93;6.00;;;18.50;99.90;;;;;;10514909;28;20233;-71
2023/05/23 07:21:00;;;;;;;6.53;5.93;;;18.60;99.90;;;;;;10496381;28;20519;-71
2023/05/23 07:26:01;;;;;;;8.03;5.70;;;19.00;99.90;;;;;;10514759;28;20328;-71
2023/05/23 07:31:02;;;;;;;5.97;5.40;;;19.30;99.90;;;;;;10519047;28;20719;-72
2023/05/23 07:36:02;;;;;;;6.33;5.73;;;19.60;99.90;;;;;;10508442;28;20233;-72
2023/05/23 07:41:03;;;;;;;6.70;6.10;;;20.10;99.90;;;;;;10496418;28;20593;-72
2023/05/23 07:46:03;;;;;;;7.63;6.57;;;20.30;99.90;;;;;;10506269;28;20227;-73
2023/05/23 07:51:04;;;;;;;6.03;5.43;;;20.80;99.90;;;;;;10512636;28;20248;-73
2023/05/23 07:56:06;;;;;;;5.57;4.63;;;23.80;99.90;;;;;;10515889;28;20217;-72
2023/05/23 08:01:06;;;;;;;4.50;4.10;;;27.90;98.80;;;;;;10518901;28;20306;-72
2023/05/23 08:06:07;;;;;;;4.57;4.17;;;30.30;76.70;;;;;;10509085;28;20260;-73
2023/05/23 08:11:08;;;;;;;5.27;4.33;;;29.00;73.30;;;;;;10513963;28;20741;-72
2023/05/23 08:16:09;;;;;;;4.73;4.30;;;27.10;79.80;;;;;;10511101;28;20693;-72
2023/05/23 08:21:09;;;;;;;4.07;3.70;;;27.00;80.90;;;;;;10507817;28;20215;-71
2023/05/23 08:26:10;;;;;;;4.90;3.40;;;26.30;81.60;;;;;;10511299;28;20234;-72
2023/05/23 08:31:10;;;;;;;3.80;3.37;;;26.20;83.20;;;;;;10513756;28;20877;-72
2023/05/23 08:36:11;;;;;;;5.03;3.60;;;25.40;85.60;;;;;;10500674;28;20266;-72
2023/05/23 08:41:22;;;;;;;3.97;3.40;;;25.00;87.90;;;;;;10516485;28;20221;-72
2023/05/23 08:46:24;;;;;;;3.60;3.20;;;24.80;86.40;;;;;;10527723;28;20238;-72
2023/05/23 08:51:26;;;;;;;5.33;3.10;;;24.60;89.10;;;;;;10521150;28;20222;-73
2023/05/23 08:56:27;;;;;;;3.43;3.13;;;25.70;87.70;;;;;;10520990;28;20830;-72
2023/05/23 09:01:29;;;;;;;3.40;3.20;;;26.80;81.70;;;;;;10513031;28;20222;-73
2023/05/23 09:06:31;;;;;;;3.00;2.80;;;27.30;80.00;;;;;;10523816;28;20789;-72
2023/05/23 09:11:33;;;;;;;3.63;3.10;;;28.00;76.50;;;;;;10520284;28;20297;-72
2023/05/23 09:16:34;;;;;;;3.73;3.00;;;28.40;76.10;;;;;;10527389;28;20267;-73
2023/05/23 09:21:34;;;;;;;3.83;2.93;;;28.30;74.60;;;;;;10514212;28;20219;-73
2023/05/23 09:26:35;;;;;;;2.93;2.60;;;27.10;76.60;;;;;;10524446;28;20854;-72
2023/05/23 09:31:35;;;;;;;3.20;3.00;;;26.20;78.00;;;;;;10521138;28;20926;-72
2023/05/23 09:36:40;;;;;;;3.63;3.03;;;25.60;81.40;;;;;;10517552;28;20267;-72
2023/05/23 09:41:40;;;;;;;3.20;3.00;;;25.20;83.40;;;;;;10512433;28;20219;-72
2023/05/23 09:46:41;;;;;;;3.40;3.10;;;25.20;83.70;;;;;;10519630;28;20234;-72
2023/05/23 09:51:42;;;;;;;4.53;3.10;;;24.60;85.70;;;;;;10518425;28;20242;-72
2023/05/23 09:56:43;;;;;;;3.10;2.80;;;23.60;89.50;;;;;;10511108;28;20237;-72
2023/05/23 10:01:46;;;;;;;3.83;3.17;;;22.80;90.60;;;;;;10525333;28;20280;-72
2023/05/23 10:06:58;;;;;;;6.77;3.33;;;22.00;91.50;;;;;;10510415;28;20702;-72
2023/05/23 10:12:05;;;;;;;5.80;3.50;;;21.50;93.30;;;;;;10517401;28;20227;-72
2023/05/23 10:17:20;;;;;;;5.07;3.00;;;21.30;94.10;;;;;;10519493;28;20229;-72
2023/05/23 10:22:21;;;;;;;4.27;3.80;;;21.40;94.70;;;;;;10495554;28;20223;-72
2023/05/23 10:27:22;;;;;;;3.10;2.90;;;21.70;94.50;;;;;;10508095;28;20307;-72
2023/05/23 10:32:23;;;;;;;3.73;3.23;;;22.30;93.80;;;;;;10513529;28;20212;-72
2023/05/23 10:37:51;;;;;;;3.73;3.07;;;23.30;92.50;;;;;;10520593;28;20222;-72
2023/05/23 10:42:59;;;;;;;4.40;2.63;;;25.00;88.20;;;;;;10508670;28;20257;-72
2023/05/23 10:48:00;;;;;;;3.17;2.87;;;25.50;82.60;;;;;;10514883;28;20214;-71
2023/05/23 10:53:02;;;;;;;3.77;3.10;;;25.70;81.20;;;;;;10516554;28;20222;-72
2023/05/23 10:58:21;;;;;;;6.20;3.10;;;24.50;83.30;;;;;;10496619;28;20591;-73
2023/05/23 11:03:48;;;;;;;4.47;3.27;;;22.90;89.60;;;;;;10511948;28;20253;-72
2023/05/23 11:09:11;;;;;;;5.23;4.00;;;22.10;91.30;;;;;;10508130;28;20261;-72
2023/05/23 11:14:11;;;;;;;3.63;3.27;;;22.30;91.60;;;;;;10519353;28;20215;-72
2023/05/23 11:19:17;;;;;;;4.70;3.90;;;23.10;90.50;;;;;;10511322;28;20293;-72
2023/05/23 11:24:18;;;;;;;3.60;3.30;;;23.90;88.50;;;;;;10514957;28;20245;-72
2023/05/23 11:29:19;;;;;;;7.40;4.03;;;24.30;88.00;;;;;;10519419;28;20210;-72
2023/05/23 11:34:20;;;;;;;3.70;3.40;;;26.90;79.50;;;;;;10511225;28;20618;-72
2023/05/23 11:39:21;;;;;;;6.90;4.07;;;28.90;73.00;;;;;;10515284;28;20302;-72
2023/05/23 11:44:25;;;;;;;5.43;4.40;;;28.30;71.90;;;;;;10515247;28;20263;-73
2023/05/23 11:49:30;;;;;;;6.07;4.17;;;27.00;74.50;;;;;;10510452;28;20589;-73
2023/05/23 11:54:31;;;;;;;10.03;4.73;;;26.10;78.70;;;;;;10514423;28;20212;-72
2023/05/23 11:59:33;;;;;;;5.00;4.50;;;25.90;80.20;;;;;;10514076;28;20210;-73
2023/05/23 12:04:35;;;;;;;5.70;4.27;;;25.70;80.40;;;;;;10512832;28;20221;-73
2023/05/23 12:09:45;;;;;;;3.83;3.43;;;25.80;80.60;;;;;;10513965;28;20237;-72
2023/05/23 12:14:46;;;;;;;5.57;3.60;;;25.80;79.40;;;;;;10514795;28;20693;-72
2023/05/23 12:19:46;;;;;;;3.03;2.80;;;25.50;80.80;;;;;;10514856;28;20235;-71
2023/05/23 12:24:47;;;;;;;4.50;4.10;;;25.30;80.20;;;;;;10505840;28;20234;-72
2023/05/23 12:29:51;;;;;;;4.00;3.40;;;25.30;81.40;;;;;;10514738;28;20282;-72
2023/05/23 12:34:51;;;;;;;4.10;2.93;;;25.40;81.30;;;;;;10512567;28;20234;-71
2023/05/23 12:39:52;;;;;;;8.00;3.10;;;25.10;80.70;;;;;;10505986;28;20215;-72
2023/05/23 12:44:53;;;;;;;3.53;2.87;;;24.20;83.40;;;;;;10513996;28;20975;-72
2023/05/23 12:49:53;;;;;;;3.23;2.90;;;23.70;86.80;;;;;;10506685;28;20737;-71
2023/05/23 12:54:54;;;;;;;6.97;3.07;;;23.60;86.50;;;;;;10521313;28;20263;-72
2023/05/23 12:59:55;;;;;;;10.20;3.73;;;24.00;87.20;;;;;;10513207;28;20775;-72
2023/05/23 13:04:55;;;;;;;4.10;3.23;;;24.30;87.10;;;;;;10505750;28;20596;-71
2023/05/23 13:09:56;;;;;;;5.10;2.77;;;24.00;88.20;;;;;;10513060;28;20328;-72
2023/05/23 13:14:57;;;;;;;2.50;2.30;;;23.40;88.70;;;;;;10509306;28;20729;-72
2023/05/23 13:19:58;;;;;;;5.20;2.63;;;23.00;90.00;;;;;;10521038;28;20222;-73
2023/05/23 13:24:58;;;;;;;4.93;2.63;;;22.80;90.00;;;;;;10519164;28;20230;-72
2023/05/23 13:29:59;;;;;;;3.60;2.50;;;22.90;89.80;;;;;;10523725;28;20223;-72
2023/05/23 13:35:00;;;;;;;3.23;2.57;;;23.10;88.60;;;;;;10512994;28;20623;-71
2023/05/23 13:40:02;;;;;;;2.53;2.33;;;22.80;90.00;;;;;;10518719;28;20295;-72
2023/05/23 13:45:03;;;;;;;3.47;2.50;;;22.80;88.40;;;;;;10529182;28;20310;-72
2023/05/23 13:50:05;;;;;;;2.73;2.30;;;22.90;86.90;;;;;;10521029;28;20211;-72
2023/05/23 13:55:06;;;;;;;2.73;2.43;;;23.10;86.70;;;;;;10517805;28;20225;-72
2023/05/23 14:00:07;;;;;;;2.93;2.37;;;23.20;85.20;;;;;;10524104;28;20286;-72
2023/05/23 14:05:08;;;;;;;2.70;2.50;;;23.20;84.00;;;;;;10517026;28;20221;-72
2023/05/23 14:10:10;;;;;;;3.67;2.90;;;23.00;84.40;;;;;;10512528;28;20263;-72
2023/05/23 14:15:11;;;;;;;4.17;2.93;;;23.20;85.40;;;;;;10515626;28;20298;-72
2023/05/23 14:20:12;;;;;;;5.33;3.70;;;23.40;84.00;;;;;;10512644;28;20298;-72
2023/05/23 14:25:12;;;;;;;6.20;3.70;;;23.30;84.60;;;;;;10517967;28;20264;-71
2023/05/23 14:30:13;;;;;;;4.03;3.63;;;23.20;86.70;;;;;;10517553;28;20258;-72
2023/05/23 14:35:14;;;;;;;7.10;3.60;;;23.40;84.80;;;;;;10513974;28;20706;-72
2023/05/23 14:40:15;;;;;;;13.17;4.53;;;23.20;85.20;;;;;;10512149;28;20183;-71
2023/05/23 14:45:15;;;;;;;5.63;4.13;;;22.90;85.00;;;;;;10514940;28;20215;-72
2023/05/23 14:50:16;;;;;;;6.17;4.50;;;22.70;86.30;;;;;;10511858;28;20182;-71
2023/05/23 14:55:18;;;;;;;4.43;4.03;;;22.40;88.40;;;;;;10498211;28;20187;-72
2023/05/23 15:00:18;;;;;;;6.63;5.03;;;22.30;88.00;;;;;;10513504;28;20202;-72
2023/05/23 15:05:19;;;;;;;7.03;4.60;;;22.00;89.10;;;;;;10506286;28;20211;-72
2023/05/23 15:10:20;;;;;;;7.70;5.50;;;21.60;90.70;;;;;;10511470;28;20280;-72
2023/05/23 15:15:22;;;;;;;9.27;6.50;;;21.30;91.20;;;;;;10515468;28;20187;-72
2023/05/23 15:20:22;;;;;;;11.77;6.03;;;21.00;91.90;;;;;;10512458;28;20660;-72
2023/05/23 15:25:25;;;;;;;9.33;5.60;;;20.70;92.90;;;;;;10497396;28;20215;-72
2023/05/23 15:30:25;;;;;;;7.17;6.00;;;20.60;92.90;;;;;;10511874;28;20289;-72
2023/05/23 15:35:26;;;;;;;11.67;6.67;;;20.40;93.70;;;;;;10515458;28;20770;-72
2023/05/23 15:40:26;;;;;;;10.00;5.90;;;20.40;93.30;;;;;;10522982;28;20238;-72
2023/05/23 15:45:27;;;;;;;7.93;5.83;;;20.40;93.40;;;;;;10514459;28;20309;-70
2023/05/23 15:50:29;;;;;;;6.73;4.90;;;20.50;92.90;;;;;;10496777;28;20249;-72
2023/05/23 15:55:29;;;;;;;6.33;5.33;;;20.70;91.10;;;;;;10520977;28;20227;-72
2023/05/23 16:00:30;;;;;;;8.30;5.07;;;20.90;90.50;;;;;;10517817;28;20214;-71
2023/05/23 16:05:30;;;;;;;7.00;5.33;;;20.80;90.00;;;;;;10521892;28;20230;-72
2023/05/23 16:10:31;;;;;;;9.90;5.50;;;20.60;90.40;;;;;;10508530;28;20298;-73
2023/05/23 16:15:32;;;;;;;8.17;5.23;;;20.50;91.30;;;;;;10511701;28;20222;-72
2023/05/23 16:20:34;;;;;;;9.47;5.43;;;20.40;92.10;;;;;;10507756;28;20215;-72
2023/05/23 16:25:34;;;;;;;7.27;4.60;;;20.40;92.00;;;;;;10511352;28;20230;-73
2023/05/23 16:30:35;;;;;;;5.50;4.23;;;20.50;91.20;;;;;;10508381;28;20218;-71
2023/05/23 16:35:35;;;;;;;6.40;4.43;;;20.40;90.80;;;;;;10518269;28;20218;-72
2023/05/23 16:40:36;;;;;;;6.10;4.47;;;20.30;91.00;;;;;;10520945;28;20742;-73
2023/05/23 16:45:37;;;;;;;4.10;3.73;;;20.30;91.50;;;;;;10526203;28;20226;-69
2023/05/23 16:50:37;;;;;;;6.20;4.40;;;20.20;91.80;;;;;;10525335;28;20291;-67
2023/05/23 16:55:38;;;;;;;5.03;4.10;;;20.10;91.80;;;;;;10525944;28;20762;-68
2023/05/23 17:00:38;;;;;;;4.70;3.80;;;19.90;92.10;;;;;;10510542;28;20245;-71
2023/05/23 17:05:39;;;;;;;5.90;4.13;;;19.70;92.50;;;;;;10532163;28;20230;-71
2023/05/23 17:10:40;;;;;;;5.00;3.23;;;19.40;93.30;;;;;;10515061;28;20336;-72
2023/05/23 17:15:41;;;;;;;4.20;3.07;;;19.20;92.50;;;;;;10500546;28;20235;-72
2023/05/23 17:20:42;;;;;;;4.93;3.70;;;19.00;92.70;;;;;;10527226;28;20349;-70
2023/05/23 17:25:43;;;;;;;4.17;3.00;;;18.90;92.40;;;;;;10512255;28;20221;-72
2023/05/23 17:30:43;;;;;;;3.60;3.00;;;18.80;91.90;;;;;;10526077;28;20214;-71
2023/05/23 17:35:44;;;;;;;5.17;3.10;;;18.70;91.30;;;;;;10502550;28;20234;-71
2023/05/23 17:40:45;;;;;;;4.00;3.10;;;18.70;91.10;;;;;;10533416;28;20232;-72
2023/05/23 17:45:46;;;;;;;3.50;2.93;;;18.60;90.90;;;;;;10531273;28;20226;-71
2023/05/23 17:50:47;;;;;;;3.53;2.80;;;18.70;90.80;;;;;;10506440;28;20225;-72
2023/05/23 17:55:47;;;;;;;5.47;2.93;;;18.60;90.60;;;;;;10514676;28;20224;-72
2023/05/23 18:00:48;;;;;;;5.20;3.10;;;18.30;91.30;;;;;;10531613;28;20218;-71
2023/05/23 18:05:49;;;;;;;5.93;3.30;;;18.20;91.10;;;;;;10513383;28;20782;-72
2023/05/23 18:10:50;;;;;;;4.23;2.80;;;18.10;91.50;;;;;;10531209;28;20307;-72
2023/05/23 18:15:51;;;;;;;3.67;2.87;;;17.90;91.60;;;;;;10530385;28;20582;-72
2023/05/23 18:20:51;;;;;;;5.23;3.17;;;17.90;91.80;;;;;;10531106;28;20229;-71
2023/05/23 18:25:53;;;;;;;6.87;2.97;;;17.80;91.30;;;;;;10538108;28;20227;-72
2023/05/23 18:30:53;;;;;;;4.47;3.10;;;17.70;91.00;;;;;;10496483;28;20278;-72
2023/05/23 18:35:54;;;;;;;6.73;3.27;;;17.40;90.40;;;;;;10528410;28;20224;-71
2023/05/23 18:40:55;;;;;;;5.17;3.30;;;17.00;89.40;;;;;;10507389;28;20226;-71
2023/05/23 18:45:55;;;;;;;6.00;3.03;;;16.70;89.90;;;;;;10513882;28;20233;-71
2023/05/23 18:50:56;;;;;;;5.73;3.23;;;16.60;90.00;;;;;;10507060;28;20285;-72
2023/05/23 18:55:56;;;;;;;4.77;2.90;;;16.40;90.40;;;;;;10524776;28;20221;-72
2023/05/23 19:01:02;;;;;;;6.13;2.90;;;16.30;90.90;;;;;;10496285;28;20289;-72
2023/05/23 19:06:03;;;;;;;6.00;3.17;;;16.20;91.40;;;;;;10519443;28;20328;-71
2023/05/23 19:11:04;;;;;;;5.43;3.10;;;16.00;91.90;;;;;;10513345;28;20229;-71
2023/05/23 19:16:06;;;;;;;7.03;3.37;;;16.00;92.40;;;;;;10516710;28;20759;-71
2023/05/23 19:21:06;;;;;;;6.80;3.27;;;16.00;92.50;;;;;;10523011;28;20693;-72
2023/05/23 19:26:08;;;;;;;6.83;3.50;;;15.90;93.10;;;;;;10517368;28;20276;-72
2023/05/23 19:31:11;;;;;;;6.87;3.33;;;15.70;93.90;;;;;;10526860;28;20225;-72
2023/05/23 19:36:12;;;;;;;6.07;3.10;;;15.70;94.40;;;;;;10504965;28;20926;-72
2023/05/23 19:41:12;;;;;;;7.03;3.30;;;15.60;94.70;;;;;;10514380;28;20219;-74
2023/05/23 19:46:14;;;;;;;8.47;3.50;;;15.60;94.70;;;;;;10500172;28;20590;-70
2023/05/23 19:51:15;;;;;;;6.53;3.10;;;15.40;94.70;;;;;;10505477;28;20236;-70
2023/05/23 19:56:16;;;;;;;8.30;3.37;;;15.40;94.80;;;;;;10489567;28;20213;-70
2023/05/23 20:01:16;;;;;;;9.53;3.73;;;15.30;94.60;;;;;;10520837;28;20753;-73
2023/05/23 20:06:18;;;;;;;8.73;3.73;;;15.20;94.90;;;;;;10515434;28;20230;-70
2023/05/23 20:11:18;;;;;;;7.13;3.30;;;15.10;94.80;;;;;;10520437;28;20227;-73
2023/05/23 20:16:20;;;;;;;9.30;3.30;;;15.10;95.10;;;;;;10511985;28;20234;-74
2023/05/23 20:21:21;;;;;;;7.83;3.77;;;15.00;95.20;;;;;;10526269;28;20707;-69
2023/05/23 20:26:21;;;;;;;7.07;3.20;;;14.90;95.30;;;;;;10507256;28;20235;-68
2023/05/23 20:31:22;;;;;;;7.00;3.10;;;14.80;95.50;;;;;;10513980;28;20214;-70
2023/05/23 20:36:23;;;;;;;6.87;3.20;;;14.80;95.80;;;;;;10514968;28;20373;-70
2023/05/23 20:41:24;;;;;;;7.17;3.37;;;14.70;96.00;;;;;;10505383;28;20252;-70
2023/05/23 20:46:25;;;;;;;7.87;3.27;;;14.60;96.10;;;;;;10509781;28;20243;-69
2023/05/23 20:51:25;;;;;;;9.10;3.50;;;14.60;96.30;;;;;;10506835;28;20217;-71
2023/05/23 20:56:26;;;;;;;10.83;4.17;;;14.60;96.30;;;;;;10519746;28;20237;-71
2023/05/23 21:01:27;;;;;;;8.80;3.73;;;14.60;96.30;;;;;;10529969;28;20246;-70
2023/05/23 21:06:28;;;;;;;8.97;3.90;;;14.60;96.20;;;;;;10530386;28;20600;-70
2023/05/23 21:11:28;;;;;;;11.90;3.57;;;14.70;96.20;;;;;;10509300;28;20220;-70
2023/05/23 21:16:29;;;;;;;10.20;4.00;;;14.70;96.10;;;;;;10523967;28;20210;-71
2023/05/23 21:21:29;;;;;;;8.97;3.50;;;14.70;96.30;;;;;;10519330;28;20217;-71
2023/05/23 21:26:30;;;;;;;9.53;3.70;;;14.70;96.40;;;;;;10525406;28;20221;-71
2023/05/23 21:31:34;;;;;;;8.73;3.87;;;14.50;96.50;;;;;;10517706;28;20298;-71
2023/05/23 21:36:35;;;;;;;10.57;3.20;;;14.40;96.80;;;;;;10522877;28;20274;-70
2023/05/23 21:41:37;;;;;;;14.33;4.53;;;14.40;96.70;;;;;;10514889;28;20304;-72
2023/05/23 21:46:37;;;;;;;7.70;3.60;;;14.40;96.80;;;;;;10515720;28;20237;-69
2023/05/23 21:51:38;;;;;;;8.93;3.70;;;14.30;96.60;;;;;;10507138;28;20217;-69
2023/05/23 21:56:39;;;;;;;11.43;3.70;;;14.30;96.70;;;;;;10522065;28;20206;-69
2023/05/23 22:01:39;;;;;;;9.20;4.10;;;14.30;96.50;;;;;;10518082;28;20237;-70
2023/05/23 22:06:40;;;;;;;12.53;3.70;;;14.20;96.50;;;;;;10508902;28;20237;-69
2023/05/23 22:11:41;;;;;;;10.10;3.70;;;14.20;96.40;;;;;;10533391;28;20242;-69
2023/05/23 22:16:41;;;;;;;8.60;3.67;;;14.10;96.50;;;;;;10521057;28;20214;-69
2023/05/23 22:21:42;;;;;;;10.17;3.60;;;14.10;96.80;;;;;;10504375;28;20227;-69
2023/05/23 22:26:43;;;;;;;10.93;3.97;;;14.10;96.90;;;;;;10506547;28;20223;-70
2023/05/23 22:31:45;;;;;;;8.60;3.10;;;14.00;97.10;;;;;;10514561;28;20267;-69
2023/05/23 22:36:46;;;;;;;10.70;3.93;;;14.00;97.40;;;;;;10517479;28;20219;-69
2023/05/23 22:41:47;;;;;;;7.90;3.40;;;13.90;97.60;;;;;;10513791;28;20215;-69
2023/05/23 22:46:47;;;;;;;8.90;3.53;;;13.80;98.00;;;;;;10520889;28;20737;-69
2023/05/23 22:51:48;;;;;;;16.87;5.60;;;13.70;98.40;;;;;;10494524;28;20837;-70
2023/05/23 22:56:49;;;;;;;10.67;4.23;;;13.60;99.90;;;;;;10503164;28;20826;-70
2023/05/23 23:01:50;;;;;;;13.83;5.10;;;13.50;99.80;;;;;;10510438;28;20223;-68
2023/05/23 23:06:52;;;;;;;9.57;3.43;;;13.40;99.40;;;;;;10513270;28;20233;-68
2023/05/23 23:11:53;;;;;;;11.53;4.03;;;13.40;99.30;;;;;;10531404;28;20219;-69
2023/05/23 23:16:54;;;;;;;12.23;3.90;;;13.30;99.60;;;;;;10504217;28;20717;-69
2023/05/23 23:21:55;;;;;;;8.87;3.63;;;13.30;99.70;;;;;;10520456;28;20223;-71
2023/05/23 23:26:55;;;;;;;17.40;3.90;;;13.20;99.70;;;;;;10520429;28;20219;-70
2023/05/23 23:31:58;;;;;;;10.47;3.53;;;13.10;99.80;;;;;;10523388;28;20219;-70
2023/05/23 23:36:59;;;;;;;8.77;4.00;;;13.00;99.90;;;;;;10515363;28;20219;-67
2023/05/23 23:41:59;;;;;;;10.50;4.07;;;12.90;99.90;;;;;;10516643;28;20311;-68
2023/05/23 23:47:00;;;;;;;13.37;4.03;;;12.90;99.90;;;;;;10512646;28;20229;-69
2023/05/23 23:52:00;;;;;;;12.87;3.70;;;12.80;99.90;;;;;;10509509;28;20647;-68
2023/05/23 23:57:01;;;;;;;9.10;3.97;;;12.70;99.90;;;;;;10502951;28;20629;-70
